createdAt,value
2022-10-11T00:01:20.198Z,10.27
2022-10-11T00:03:46.803Z,12.68
2022-10-11T00:06:13.524Z,6.22
2022-10-11T00:08:40.189Z,9.35
2022-10-11T00:11:07.913Z,6.32
2022-10-11T00:13:34.744Z,9.40
2022-10-11T00:16:01.878Z,11.15
2022-10-11T00:18:28.666Z,10.88
2022-10-11T00:21:06.255Z,6.93
2022-10-11T00:23:33.392Z,10.17
2022-10-11T00:26:01.815Z,9.13
2022-10-11T00:28:28.812Z,10.40
2022-10-11T00:30:55.463Z,10.95
2022-10-11T00:33:22.053Z,9.68
2022-10-11T00:35:48.988Z,6.90
2022-10-11T00:38:17.715Z,5.10
2022-10-11T00:40:45.001Z,17.30
2022-10-11T00:43:31.136Z,10.48
2022-10-11T00:45:57.685Z,13.48
2022-10-11T00:48:58.149Z,7.03
2022-10-11T00:51:34.919Z,9.40
2022-10-11T00:54:02.358Z,19.13
2022-10-11T00:56:33.424Z,7.32
2022-10-11T00:59:03.200Z,10.70
2022-10-11T01:01:29.859Z,9.00
2022-10-11T01:03:57.121Z,15.45
2022-10-11T01:06:23.743Z,12.77
2022-10-11T01:08:51.720Z,11.77
2022-10-11T01:11:21.563Z,8.30
2022-10-11T01:14:00.123Z,9.63
2022-10-11T01:16:35.151Z,9.90
2022-10-11T01:19:29.696Z,11.48
2022-10-11T01:22:23.632Z,12.05
2022-10-11T01:25:21.251Z,13.40
2022-10-11T01:28:06.606Z,13.10
2022-10-11T01:30:34.650Z,13.15
2022-10-11T01:33:16.827Z,8.85
2022-10-11T01:36:02.092Z,12.60
2022-10-11T01:38:50.934Z,9.85
2022-10-11T01:41:27.772Z,7.45
2022-10-11T01:43:59.006Z,13.10
2022-10-11T01:46:26.632Z,11.20
2022-10-11T01:48:59.117Z,9.10
2022-10-11T01:51:31.967Z,11.77
2022-10-11T01:55:04.358Z,14.15
2022-10-11T01:58:04.184Z,14.70
2022-10-11T02:00:50.461Z,10.52
2022-10-11T02:03:32.203Z,11.88
2022-10-11T02:06:10.680Z,7.68
2022-10-11T02:11:27.912Z,5.57
2022-10-11T02:14:18.740Z,4.60
2022-10-11T02:16:49.069Z,7.47
2022-10-11T02:19:19.207Z,7.30
2022-10-11T02:21:48.139Z,9.70
2022-10-11T02:24:21.812Z,8.50
2022-10-11T02:26:54.595Z,4.63
2022-10-11T02:29:23.471Z,6.50
2022-10-11T02:31:51.258Z,2.88
2022-10-11T02:34:22.514Z,10.02
2022-10-11T02:37:10.579Z,7.35
2022-10-11T02:39:49.135Z,10.73
2022-10-11T02:42:22.605Z,10.25
2022-10-11T02:45:01.032Z,4.57
2022-10-11T02:49:55.520Z,7.43
2022-10-11T02:52:22.046Z,7.45
2022-10-11T02:54:48.595Z,15.13
2022-10-11T02:57:15.192Z,6.38
2022-10-11T02:59:41.759Z,9.20
2022-10-11T03:02:08.454Z,7.13
2022-10-11T03:04:35.079Z,7.78
2022-10-11T03:07:01.653Z,6.82
2022-10-11T03:09:28.224Z,23.35
2022-10-11T03:11:54.804Z,7.63
2022-10-11T03:14:21.392Z,10.32
2022-10-11T03:16:48.719Z,8.52
2022-10-11T03:19:19.181Z,7.00
2022-10-11T03:21:46.406Z,8.90
2022-10-11T03:24:13.019Z,6.43
2022-10-11T03:26:39.757Z,5.15
2022-10-11T03:29:06.343Z,6.65
2022-10-11T03:31:32.908Z,6.88
2022-10-11T03:33:59.481Z,10.27
2022-10-11T03:36:26.048Z,5.65
2022-10-11T03:38:52.594Z,10.95
2022-10-11T03:41:19.279Z,14.18
2022-10-11T03:43:45.803Z,9.18
2022-10-11T03:46:12.416Z,10.88
2022-10-11T03:48:39.259Z,10.30
2022-10-11T03:51:06.020Z,7.18
2022-10-11T03:53:32.629Z,4.75
2022-10-11T03:55:59.189Z,4.10
2022-10-11T03:58:25.848Z,6.35
2022-10-11T04:00:52.832Z,4.93
2022-10-11T04:03:19.496Z,7.50
2022-10-11T04:05:46.076Z,8.10
2022-10-11T04:08:12.636Z,9.05
2022-10-11T04:10:40.370Z,8.70
2022-10-11T04:13:07.460Z,5.88
2022-10-11T04:15:34.054Z,8.00
2022-10-11T04:18:00.670Z,5.45
2022-10-11T04:20:27.283Z,6.85
2022-10-11T04:22:53.825Z,8.88
2022-10-11T04:25:20.355Z,6.82
2022-10-11T04:27:46.937Z,7.72
2022-10-11T04:30:13.787Z,8.20
2022-10-11T04:32:40.366Z,12.77
2022-10-11T04:35:07.138Z,5.20
2022-10-11T04:37:33.805Z,7.90
2022-10-11T04:40:00.396Z,3.53
2022-10-11T04:42:27.045Z,7.80
2022-10-11T04:44:53.581Z,7.00
2022-10-11T04:47:20.103Z,7.35
2022-10-11T04:49:46.712Z,5.45
2022-10-11T04:52:13.248Z,6.60
2022-10-11T04:54:39.884Z,6.80
2022-10-11T04:57:06.620Z,6.50
2022-10-11T04:59:33.315Z,13.43
2022-10-11T05:01:59.962Z,11.65
2022-10-11T05:04:26.563Z,7.32
2022-10-11T05:06:53.145Z,8.18
2022-10-11T05:09:19.737Z,7.75
2022-10-11T05:11:46.283Z,8.93
2022-10-11T05:14:12.858Z,5.95
2022-10-11T05:16:39.516Z,8.05
2022-10-11T05:19:06.181Z,7.57
2022-10-11T05:21:32.800Z,9.25
2022-10-11T05:23:59.431Z,7.15
2022-10-11T05:26:27.694Z,10.70
2022-10-11T05:28:55.267Z,11.23
2022-10-11T05:31:22.468Z,10.50
2022-10-11T05:33:49.140Z,11.80
2022-10-11T05:36:16.086Z,7.82
2022-10-11T05:38:42.793Z,10.43
2022-10-11T05:41:10.933Z,10.88
2022-10-11T05:43:37.509Z,11.45
2022-10-11T05:46:04.370Z,9.38
2022-10-11T05:48:31.195Z,9.43
2022-10-11T05:51:05.379Z,10.40
2022-10-11T05:53:32.653Z,12.45
2022-10-11T05:55:59.648Z,12.65
2022-10-11T05:58:26.303Z,6.13
2022-10-11T06:00:52.944Z,6.57
2022-10-11T06:03:21.125Z,10.68
2022-10-11T06:05:47.757Z,7.53
2022-10-11T06:08:14.707Z,7.88
2022-10-11T06:10:41.757Z,5.45
2022-10-11T06:13:09.465Z,5.65
2022-10-11T06:15:38.978Z,6.45
2022-10-11T06:18:05.662Z,7.13
2022-10-11T06:20:32.269Z,6.93
2022-10-11T06:22:58.973Z,7.40
2022-10-11T06:25:25.613Z,4.97
2022-10-11T06:27:52.177Z,4.57
2022-10-11T06:30:18.871Z,6.22
2022-10-11T06:32:45.450Z,8.93
2022-10-11T06:35:12.064Z,10.60
2022-10-11T06:37:38.639Z,6.30
2022-10-11T06:40:05.685Z,6.28
2022-10-11T06:42:32.222Z,7.13
2022-10-11T06:44:58.800Z,5.95
2022-10-11T06:47:25.405Z,15.65
2022-10-11T06:49:51.984Z,5.72
2022-10-11T06:52:18.569Z,4.38
2022-10-11T06:54:45.717Z,4.63
2022-10-11T06:57:12.633Z,4.78
2022-10-11T06:59:39.330Z,4.78
2022-10-11T07:02:05.937Z,3.78
2022-10-11T07:04:34.009Z,3.58
2022-10-11T07:07:00.732Z,4.82
2022-10-11T07:09:27.357Z,5.22
2022-10-11T07:11:53.926Z,4.07
2022-10-11T07:14:20.459Z,3.80
2022-10-11T07:16:47.029Z,4.75
2022-10-11T07:19:13.646Z,5.18
2022-10-11T07:21:40.262Z,4.80
2022-10-11T07:24:07.403Z,4.03
2022-10-11T07:26:38.764Z,4.47
2022-10-11T07:29:08.118Z,4.18
2022-10-11T07:31:37.292Z,4.63
2022-10-11T07:34:03.891Z,4.38
2022-10-11T07:36:30.491Z,4.53
2022-10-11T07:38:57.162Z,5.22
2022-10-11T07:41:23.696Z,4.65
2022-10-11T07:43:51.082Z,6.25
2022-10-11T07:46:18.797Z,5.68
2022-10-11T07:48:45.748Z,5.65
2022-10-11T07:51:14.976Z,6.18
2022-10-11T07:53:46.885Z,4.75
2022-10-11T07:56:16.955Z,8.23
2022-10-11T07:58:43.900Z,7.32
2022-10-11T08:01:11.557Z,5.05
2022-10-11T08:03:38.445Z,6.57
2022-10-11T08:06:08.164Z,5.90
2022-10-11T08:08:36.075Z,5.90
2022-10-11T08:11:02.778Z,5.28
2022-10-11T08:13:29.557Z,5.85
2022-10-11T08:15:56.444Z,8.85
2022-10-11T08:18:23.351Z,9.20
2022-10-11T08:20:50.088Z,6.43
2022-10-11T08:23:18.203Z,6.18
2022-10-11T08:25:46.710Z,5.18
2022-10-11T08:28:17.964Z,6.45
2022-10-11T08:30:52.525Z,6.57
2022-10-11T08:33:21.505Z,5.43
2022-10-11T08:35:48.930Z,5.70
2022-10-11T08:38:15.839Z,6.20
2022-10-11T08:40:53.864Z,7.65
2022-10-11T08:43:29.485Z,6.38
2022-10-11T08:45:58.015Z,5.63
2022-10-11T08:50:57.805Z,7.65
2022-10-11T08:54:06.346Z,7.82
2022-10-11T08:56:36.732Z,7.32
2022-10-11T08:59:08.768Z,7.07
2022-10-11T09:01:36.013Z,9.38
2022-10-11T09:04:03.661Z,7.47
2022-10-11T09:06:55.076Z,7.47
2022-10-11T09:09:57.053Z,8.45
2022-10-11T09:12:55.017Z,10.32
2022-10-11T09:16:06.677Z,11.63
2022-10-11T09:18:51.112Z,8.85
2022-10-11T09:21:20.679Z,8.80
2022-10-11T09:24:13.668Z,9.60
2022-10-11T09:26:45.768Z,13.70
2022-10-11T09:29:30.103Z,12.10
2022-10-11T09:31:57.280Z,9.23
2022-10-11T09:34:26.643Z,9.85
2022-10-11T09:37:18.099Z,10.55
2022-10-11T09:39:55.553Z,11.10
2022-10-11T09:42:22.215Z,9.35
2022-10-11T09:44:50.892Z,7.38
2022-10-11T09:50:07.083Z,7.75
2022-10-11T09:52:34.273Z,9.90
2022-10-11T09:55:02.328Z,9.60
2022-10-11T09:57:39.859Z,8.57
2022-10-11T10:00:19.156Z,5.65
2022-10-11T10:02:52.941Z,6.03
2022-10-11T10:05:27.976Z,10.32
2022-10-11T10:08:04.832Z,13.23
2022-10-11T10:10:44.453Z,9.10
2022-10-11T10:13:29.753Z,8.45
2022-10-11T10:16:01.236Z,10.75
2022-10-11T10:18:41.992Z,6.60
2022-10-11T10:21:12.454Z,9.05
2022-10-11T10:23:39.177Z,8.38
2022-10-11T10:26:18.940Z,6.30
2022-10-11T10:29:08.475Z,9.35
2022-10-11T10:32:09.269Z,11.95
2022-10-11T10:34:25.611Z,9.63
2022-10-11T10:37:32.770Z,11.27
2022-10-11T10:40:05.446Z,8.85
2022-10-11T10:42:32.872Z,14.13
2022-10-11T10:45:00.023Z,11.82
2022-10-11T10:48:00.584Z,16.58
2022-10-11T10:51:10.273Z,16.42
2022-10-11T10:53:42.656Z,6.47
2022-10-11T10:56:24.248Z,12.55
2022-10-11T10:59:06.227Z,17.17
2022-10-11T11:01:36.231Z,8.73
2022-10-11T11:04:31.245Z,11.25
2022-10-11T11:07:05.121Z,8.93
2022-10-11T11:09:53.584Z,10.30
2022-10-11T11:12:30.083Z,13.70
2022-10-11T11:15:08.876Z,13.55
2022-10-11T11:17:47.847Z,9.73
2022-10-11T11:20:27.425Z,12.32
2022-10-11T11:23:15.731Z,8.93
2022-10-11T11:25:49.931Z,14.23
2022-10-11T11:28:40.353Z,8.10
2022-10-11T11:31:07.368Z,16.42
2022-10-11T11:33:34.206Z,7.85
2022-10-11T11:36:09.437Z,9.07
2022-10-11T11:38:45.588Z,16.48
2022-10-11T11:41:21.487Z,12.27
2022-10-11T11:43:47.996Z,6.28
2022-10-11T11:46:55.582Z,9.68
2022-10-11T11:49:30.902Z,15.85
2022-10-11T11:51:58.483Z,7.85
2022-10-11T11:54:36.231Z,10.93
2022-10-11T11:57:21.325Z,9.82
2022-10-11T11:59:52.997Z,5.55
2022-10-11T12:02:28.975Z,6.28
2022-10-11T12:04:55.739Z,9.20
2022-10-11T12:07:24.139Z,6.00
2022-10-11T12:09:54.447Z,10.70
2022-10-11T12:12:36.652Z,11.52
2022-10-11T12:15:09.199Z,14.45
2022-10-11T12:17:57.527Z,8.30
2022-10-11T12:22:54.013Z,7.55
2022-10-11T12:25:23.994Z,11.15
2022-10-11T12:27:53.031Z,7.85
2022-10-11T12:30:44.546Z,7.30
2022-10-11T12:33:22.964Z,8.73
2022-10-11T12:35:57.308Z,12.10
2022-10-11T12:38:33.878Z,7.47
2022-10-11T12:41:09.532Z,8.50
2022-10-11T12:44:04.652Z,8.23
2022-10-11T12:46:31.166Z,7.10
2022-10-11T12:49:10.246Z,11.07
2022-10-11T12:51:42.490Z,8.07
2022-10-11T12:54:44.249Z,11.90
2022-10-11T12:57:50.624Z,10.77
2022-10-11T13:00:26.022Z,5.70
2022-10-11T13:02:52.727Z,8.20
2022-10-11T13:05:45.560Z,10.88
2022-10-11T13:08:31.655Z,4.97
2022-10-11T13:11:01.812Z,7.50
2022-10-11T13:13:32.845Z,10.40
2022-10-11T13:16:03.623Z,10.73
2022-10-11T13:18:30.556Z,12.52
2022-10-11T13:20:57.279Z,10.27
2022-10-11T13:23:29.532Z,5.38
2022-10-11T13:25:56.523Z,10.13
2022-10-11T13:28:23.771Z,9.02
2022-10-11T13:30:53.364Z,7.40
2022-10-11T13:33:32.277Z,13.93
2022-10-11T13:36:00.874Z,6.53
2022-10-11T13:41:00.091Z,10.73
2022-10-11T13:43:28.913Z,8.02
2022-10-11T13:45:56.748Z,6.03
2022-10-11T13:48:26.028Z,7.85
2022-10-11T13:51:12.506Z,6.85
2022-10-11T13:54:06.102Z,9.98
2022-10-11T13:56:48.444Z,6.32
2022-10-11T13:59:20.696Z,7.00
2022-10-11T14:01:47.717Z,5.97
2022-10-11T14:04:15.660Z,5.00
2022-10-11T14:07:04.401Z,5.13
2022-10-11T14:09:36.566Z,5.38
2022-10-11T14:12:43.213Z,5.32
2022-10-11T14:15:34.971Z,4.95
2022-10-11T14:18:03.409Z,5.63
2022-10-11T14:20:40.199Z,5.43
2022-10-11T14:23:06.919Z,3.60
2022-10-11T14:25:33.929Z,4.88
2022-10-11T14:28:00.842Z,5.82
2022-10-11T14:30:28.078Z,6.72
2022-10-11T14:32:57.139Z,6.60
2022-10-11T14:35:25.997Z,7.22
2022-10-11T14:37:53.224Z,7.47
2022-10-11T14:40:23.017Z,8.90
2022-10-11T14:42:50.185Z,11.98
2022-10-11T14:45:17.743Z,7.00
2022-10-11T14:47:44.410Z,8.30
2022-10-11T14:50:29.226Z,7.50
2022-10-11T14:52:56.323Z,5.60
2022-10-11T14:55:24.331Z,5.78
2022-10-11T14:57:50.907Z,8.70
2022-10-11T15:00:25.034Z,5.57
2022-10-11T15:02:53.463Z,6.75
2022-10-11T15:05:20.883Z,6.13
2022-10-11T15:07:48.038Z,5.93
2022-10-11T15:10:24.626Z,6.50
2022-10-11T15:12:52.507Z,5.30
2022-10-11T15:15:22.363Z,4.22
2022-10-11T15:17:51.467Z,3.25
2022-10-11T15:20:28.582Z,7.97
2022-10-11T15:22:56.330Z,5.60
2022-10-11T15:25:23.648Z,7.47
2022-10-11T15:27:50.780Z,5.07
2022-10-11T15:30:23.978Z,5.38
2022-10-11T15:32:51.992Z,4.22
2022-10-11T15:35:20.119Z,4.65
2022-10-11T15:37:47.226Z,5.97
2022-10-11T15:40:33.410Z,4.53
2022-10-11T15:43:00.352Z,7.50
2022-10-11T15:45:27.708Z,3.75
2022-10-11T15:47:54.356Z,8.02
2022-10-11T15:50:36.792Z,7.30
2022-10-11T15:53:04.160Z,16.02
2022-10-11T15:55:31.465Z,19.00
2022-10-11T15:57:58.325Z,19.58
2022-10-11T16:00:26.189Z,18.65
2022-10-11T16:02:53.329Z,16.77
2022-10-11T16:05:27.334Z,10.15
2022-10-11T16:07:54.243Z,13.48
2022-10-11T16:10:21.614Z,11.32
2022-10-11T16:12:48.391Z,7.53
2022-10-11T16:15:15.693Z,10.55
2022-10-11T16:17:42.267Z,6.45
2022-10-11T16:20:09.231Z,5.38
2022-10-11T16:22:36.037Z,7.32
2022-10-11T16:25:03.463Z,4.32
2022-10-11T16:27:30.179Z,7.20
2022-10-11T16:29:56.896Z,5.45
2022-10-11T16:32:24.381Z,5.93
2022-10-11T16:34:51.111Z,6.20
2022-10-11T16:37:17.728Z,8.23
2022-10-11T16:39:44.354Z,7.47
2022-10-11T16:42:11.202Z,12.05
2022-10-11T16:44:39.327Z,8.95
2022-10-11T16:47:06.527Z,5.72
2022-10-11T16:49:33.679Z,7.78
2022-10-11T16:52:02.528Z,7.13
2022-10-11T16:54:30.487Z,8.02
2022-10-11T16:56:58.629Z,6.82
2022-10-11T16:59:25.600Z,7.15
2022-10-11T17:01:52.217Z,5.50
2022-10-11T17:04:18.933Z,5.38
2022-10-11T17:06:45.695Z,4.22
2022-10-11T17:09:12.271Z,4.72
2022-10-11T17:11:39.139Z,9.88
2022-10-11T17:14:06.547Z,6.40
2022-10-11T17:16:34.065Z,7.63
2022-10-11T17:19:01.062Z,9.85
2022-10-11T17:21:28.104Z,12.15
2022-10-11T17:23:54.796Z,27.95
2022-10-11T17:26:26.391Z,23.95
2022-10-11T17:28:54.461Z,23.63
2022-10-11T17:31:21.363Z,12.23
2022-10-11T17:33:48.231Z,8.60
2022-10-11T17:36:22.752Z,8.05
2022-10-11T17:38:50.605Z,13.52
2022-10-11T17:41:17.970Z,7.43
2022-10-11T17:43:44.726Z,7.53
2022-10-11T17:46:13.362Z,8.32
2022-10-11T17:51:08.738Z,7.53
2022-10-11T17:53:35.576Z,11.07
2022-10-11T17:56:11.228Z,9.07
2022-10-11T17:58:37.964Z,12.02
2022-10-11T18:01:07.925Z,7.30
2022-10-11T18:03:35.118Z,9.52
2022-10-11T18:06:06.532Z,8.20
2022-10-11T18:08:40.394Z,7.85
2022-10-11T18:11:12.250Z,8.68
2022-10-11T18:13:42.275Z,11.25
2022-10-11T18:16:10.772Z,12.43
2022-10-11T18:18:38.134Z,29.42
2022-10-11T18:21:04.794Z,32.45
2022-10-11T18:23:32.008Z,20.33
2022-10-11T18:25:58.604Z,23.48
2022-10-11T18:28:25.349Z,34.97
2022-10-11T18:30:53.250Z,27.95
2022-10-11T18:33:19.863Z,18.00
2022-10-11T18:35:46.440Z,14.60
2022-10-11T18:38:13.032Z,9.68
2022-10-11T18:40:44.705Z,13.27
2022-10-11T18:43:13.535Z,7.60
2022-10-11T18:45:40.091Z,9.40
2022-10-11T18:48:08.624Z,7.57
2022-10-11T18:53:02.406Z,10.27
2022-10-11T18:55:29.009Z,10.88
2022-10-11T18:57:55.635Z,8.43
2022-10-11T19:00:49.611Z,6.32
2022-10-11T19:03:08.849Z,8.95
2022-10-11T19:05:38.758Z,5.07
2022-10-11T19:08:05.668Z,5.25
2022-10-11T19:10:32.771Z,8.65
2022-10-11T19:12:59.498Z,5.57
2022-10-11T19:15:28.733Z,9.65
2022-10-11T19:17:55.603Z,12.07
2022-10-11T19:20:22.216Z,13.32
2022-10-11T19:22:48.759Z,20.65
2022-10-11T19:25:15.441Z,12.50
2022-10-11T19:27:41.975Z,10.02
2022-10-11T19:30:08.941Z,9.85
2022-10-11T19:32:35.560Z,8.10
2022-10-11T19:35:02.267Z,7.68
2022-10-11T19:37:28.994Z,7.20
2022-10-11T19:39:55.774Z,6.28
2022-10-11T19:42:22.335Z,8.30
2022-10-11T19:44:48.882Z,9.38
2022-10-11T19:47:16.252Z,7.95
2022-10-11T19:49:42.806Z,9.75
2022-10-11T19:52:09.872Z,7.10
2022-10-11T19:54:36.417Z,6.43
2022-10-11T19:57:03.036Z,5.40
2022-10-11T19:59:29.835Z,4.93
2022-10-11T20:01:56.397Z,5.90
2022-10-11T20:04:47.478Z,5.55
2022-10-11T20:07:10.001Z,8.80
2022-10-11T20:09:36.774Z,9.48
2022-10-11T20:12:03.371Z,7.07
2022-10-11T20:14:29.946Z,7.78
2022-10-11T20:16:56.521Z,8.60
2022-10-11T20:19:29.314Z,11.00
2022-10-11T20:21:57.423Z,7.57
2022-10-11T20:24:24.035Z,6.40
2022-10-11T20:26:50.596Z,7.07
2022-10-11T20:29:17.179Z,8.75
2022-10-11T20:31:43.782Z,10.63
2022-10-11T20:34:10.960Z,9.02
2022-10-11T20:36:37.616Z,7.72
2022-10-11T20:39:04.903Z,9.60
2022-10-11T20:41:33.806Z,9.07
2022-10-11T20:44:01.580Z,5.50
2022-10-11T20:46:30.703Z,5.38
2022-10-11T20:49:02.508Z,8.20
2022-10-11T20:51:30.734Z,7.70
2022-10-11T20:53:58.113Z,9.70
2022-10-11T20:56:24.799Z,8.75
2022-10-11T20:58:53.038Z,5.25
2022-10-11T21:01:22.617Z,6.45
2022-10-11T21:03:49.264Z,7.10
2022-10-11T21:06:15.872Z,8.73
2022-10-11T21:08:42.489Z,10.15
2022-10-11T21:11:09.870Z,4.72
2022-10-11T21:13:36.675Z,6.85
2022-10-11T21:16:14.626Z,7.95
2022-10-11T21:18:41.684Z,6.15
2022-10-11T21:21:10.672Z,7.45
2022-10-11T21:23:37.304Z,7.68
2022-10-11T21:26:05.491Z,10.52
2022-10-11T21:28:32.164Z,37.33
2022-10-11T21:31:08.745Z,25.20
2022-10-11T21:33:35.826Z,12.07
2022-10-11T21:36:07.185Z,14.25
2022-10-11T21:38:34.301Z,7.10
2022-10-11T21:41:09.037Z,11.05
2022-10-11T21:43:38.042Z,12.57
2022-10-11T21:46:22.695Z,9.90
2022-10-11T21:48:50.246Z,10.40
2022-10-11T21:51:32.775Z,8.60
2022-10-11T21:54:02.713Z,13.15
2022-10-11T21:56:29.916Z,8.30
2022-10-11T21:58:56.620Z,10.38
2022-10-11T22:01:23.447Z,8.02
2022-10-11T22:03:51.096Z,10.23
2022-10-11T22:06:17.684Z,8.93
2022-10-11T22:08:44.443Z,12.63
2022-10-11T22:11:11.699Z,15.32
2022-10-11T22:13:38.430Z,11.40
2022-10-11T22:16:06.667Z,13.63
2022-10-11T22:18:33.919Z,10.20
2022-10-11T22:21:08.036Z,13.13
2022-10-11T22:23:34.815Z,10.75
2022-10-11T22:26:06.509Z,12.65
2022-10-11T22:28:33.332Z,11.13
2022-10-11T22:31:00.490Z,15.77
2022-10-11T22:33:27.607Z,13.27
2022-10-11T22:35:58.744Z,11.25
2022-10-11T22:38:25.524Z,10.32
2022-10-11T22:40:52.751Z,8.27
2022-10-11T22:43:19.744Z,9.02
2022-10-11T22:45:46.615Z,8.70
2022-10-11T22:48:13.284Z,7.38
2022-10-11T22:50:39.896Z,10.13
2022-10-11T22:53:07.419Z,10.20
2022-10-11T22:55:34.203Z,12.00
2022-10-11T22:58:00.998Z,16.98
2022-10-11T23:00:28.072Z,13.27
2022-10-11T23:02:54.639Z,11.52
2022-10-11T23:05:21.176Z,8.73
2022-10-11T23:07:48.029Z,10.65
2022-10-11T23:10:15.069Z,9.23
2022-10-11T23:12:41.701Z,10.02
2022-10-11T23:15:08.542Z,9.93
2022-10-11T23:17:35.392Z,10.65
2022-10-11T23:20:02.340Z,10.13
2022-10-11T23:22:28.874Z,9.02
2022-10-11T23:24:55.557Z,9.75
2022-10-11T23:27:22.150Z,10.65
2022-10-11T23:29:48.684Z,10.88
2022-10-11T23:32:15.238Z,12.88
2022-10-11T23:34:41.938Z,11.88
2022-10-11T23:37:08.458Z,8.05
2022-10-11T23:39:35.129Z,8.82
2022-10-11T23:42:01.731Z,12.75
2022-10-11T23:44:28.346Z,13.93
2022-10-11T23:46:54.923Z,12.07
2022-10-11T23:49:22.107Z,15.43
2022-10-11T23:51:48.635Z,13.65
2022-10-11T23:54:15.224Z,11.85
2022-10-11T23:56:41.782Z,14.98
2022-10-11T23:59:08.364Z,11.52
